createdAt,value
2018-12-21T00:01:39.901Z,94399.53
2018-12-21T00:04:07.852Z,94403.38
2018-12-21T00:06:35.954Z,94397.39
2018-12-21T00:09:05.752Z,94398.69
2018-12-21T00:11:33.702Z,94396.39
2018-12-21T00:14:01.631Z,94400.17
2018-12-21T00:16:29.607Z,94404.75
2018-12-21T00:18:57.539Z,94405.77
2018-12-21T00:21:25.611Z,94402.73
2018-12-21T00:23:53.583Z,94406.33
2018-12-21T00:26:21.564Z,94413.42
2018-12-21T00:28:49.513Z,94413.81
2018-12-21T00:31:23.095Z,94415.11
2018-12-21T00:33:56.461Z,94429.18
2018-12-21T00:36:30.014Z,94431.52
2018-12-21T00:39:03.355Z,94434.78
2018-12-21T00:41:30.739Z,94429.23
2018-12-21T00:44:03.931Z,94428.55
2018-12-21T00:46:35.020Z,94431.34
2018-12-21T00:49:02.932Z,94432.88
2018-12-21T00:51:30.846Z,94432.08
2018-12-21T00:53:58.875Z,94429.24
2018-12-21T00:56:26.830Z,94429.42
2018-12-21T00:58:54.818Z,94430.86
2018-12-21T01:01:22.893Z,94434.23
2018-12-21T01:03:50.806Z,94441.91
2018-12-21T01:06:18.904Z,94437.18
2018-12-21T01:08:46.907Z,94431.14
2018-12-21T01:11:14.802Z,94437.03
2018-12-21T01:13:42.779Z,94446.30
2018-12-21T01:16:10.758Z,94449.14
2018-12-21T01:18:38.654Z,94441.95
2018-12-21T01:21:06.690Z,94439.00
2018-12-21T01:23:34.792Z,94439.91
2018-12-21T01:26:02.727Z,94435.67
2018-12-21T01:28:30.699Z,94435.73
2018-12-21T01:30:58.672Z,94443.95
2018-12-21T01:33:26.669Z,94451.95
2018-12-21T01:35:54.629Z,94460.30
2018-12-21T01:38:22.612Z,94457.74
2018-12-21T01:40:50.621Z,94456.48
2018-12-21T01:43:18.680Z,94459.28
2018-12-21T01:45:46.682Z,94458.09
2018-12-21T01:48:14.620Z,94441.42
2018-12-21T01:50:42.627Z,94446.02
2018-12-21T01:53:10.697Z,94444.20
2018-12-21T01:55:38.636Z,94449.36
2018-12-21T01:58:06.660Z,94452.37
2018-12-21T02:00:34.640Z,94449.84
2018-12-21T02:03:02.591Z,94442.23
2018-12-21T02:05:30.493Z,94444.99
2018-12-21T02:07:58.412Z,94441.03
2018-12-21T02:10:26.328Z,94445.37
2018-12-21T02:12:54.273Z,94446.32
2018-12-21T02:15:22.214Z,94446.09
2018-12-21T02:17:50.133Z,94447.06
2018-12-21T02:20:18.237Z,94444.19
2018-12-21T02:22:46.217Z,94441.94
2018-12-21T02:25:14.158Z,94448.86
2018-12-21T02:27:42.058Z,94449.81
2018-12-21T02:30:10.079Z,94453.28
2018-12-21T02:32:38.070Z,94455.92
2018-12-21T02:35:06.253Z,94446.02
2018-12-21T02:37:34.133Z,94451.39
2018-12-21T02:40:02.225Z,94450.61
2018-12-21T02:42:30.117Z,94446.48
2018-12-21T02:44:58.122Z,94447.00
2018-12-21T02:47:26.057Z,94452.72
2018-12-21T02:49:54.022Z,94449.22
2018-12-21T02:52:21.947Z,94453.77
2018-12-21T02:54:49.920Z,94456.20
2018-12-21T02:57:17.851Z,94449.53
2018-12-21T02:59:45.819Z,94440.90
2018-12-21T03:02:13.753Z,94440.97
2018-12-21T03:04:41.695Z,94448.52
2018-12-21T03:07:09.650Z,94446.48
2018-12-21T03:09:37.587Z,94442.27
2018-12-21T03:12:05.688Z,94441.88
2018-12-21T03:14:33.649Z,94445.22
2018-12-21T03:17:01.624Z,94435.31
2018-12-21T03:19:29.591Z,94438.30
2018-12-21T03:21:57.572Z,94442.48
2018-12-21T03:24:25.627Z,94447.00
2018-12-21T03:26:53.557Z,94447.81
2018-12-21T03:29:21.556Z,94444.37
2018-12-21T03:31:49.607Z,94440.05
2018-12-21T03:34:17.568Z,94437.87
2018-12-21T03:36:45.522Z,94442.76
2018-12-21T03:39:13.524Z,94439.42
2018-12-21T03:41:41.435Z,94439.08
2018-12-21T03:44:09.391Z,94433.14
2018-12-21T03:46:37.338Z,94439.14
2018-12-21T03:49:05.321Z,94436.16
2018-12-21T03:51:33.405Z,94435.95
2018-12-21T03:54:01.442Z,94440.38
2018-12-21T03:56:29.374Z,94444.62
2018-12-21T03:58:57.340Z,94441.77
2018-12-21T04:01:25.204Z,94447.38
2018-12-21T04:03:53.280Z,94439.00
2018-12-21T04:06:21.227Z,94437.70
2018-12-21T04:08:50.195Z,94432.51
2018-12-21T04:11:18.204Z,94441.35
2018-12-21T04:13:46.156Z,94427.94
2018-12-21T04:16:14.118Z,94419.97
2018-12-21T04:18:42.090Z,94432.09
2018-12-21T04:21:10.040Z,94431.87
2018-12-21T04:23:37.944Z,94432.51
2018-12-21T04:26:05.969Z,94436.69
2018-12-21T04:28:34.024Z,94434.65
2018-12-21T04:31:01.996Z,94430.50
2018-12-21T04:33:29.956Z,94423.05
2018-12-21T04:35:57.948Z,94433.16
2018-12-21T04:38:25.903Z,94433.81
2018-12-21T04:40:53.827Z,94434.88
2018-12-21T04:43:21.915Z,94437.31
2018-12-21T04:45:49.968Z,94434.39
2018-12-21T04:48:17.923Z,94441.23
2018-12-21T04:50:45.988Z,94447.48
2018-12-21T04:53:14.011Z,94452.00
2018-12-21T04:55:42.099Z,94450.41
2018-12-21T04:58:10.498Z,94453.84
2018-12-21T05:00:38.552Z,94455.56
2018-12-21T05:03:06.677Z,94449.27
2018-12-21T05:05:34.731Z,94443.21
2018-12-21T05:08:02.800Z,94441.20
2018-12-21T05:10:30.937Z,94444.27
2018-12-21T05:12:59.088Z,94448.88
2018-12-21T05:15:27.346Z,94447.28
2018-12-21T05:17:55.469Z,94455.20
2018-12-21T05:20:23.629Z,94445.48
2018-12-21T05:22:52.351Z,94443.73
2018-12-21T05:25:21.006Z,94449.81
2018-12-21T05:27:49.109Z,94451.80
2018-12-21T05:30:17.165Z,94453.48
2018-12-21T05:32:45.407Z,94446.61
2018-12-21T05:35:13.616Z,94452.55
2018-12-21T05:37:41.704Z,94455.88
2018-12-21T05:40:09.760Z,94452.16
2018-12-21T05:42:37.903Z,94454.72
2018-12-21T05:45:06.442Z,94445.48
2018-12-21T05:47:34.550Z,94452.59
2018-12-21T05:50:02.718Z,94451.17
2018-12-21T05:52:30.781Z,94447.34
2018-12-21T05:54:59.064Z,94452.08
2018-12-21T05:57:27.428Z,94450.59
2018-12-21T05:59:55.962Z,94451.17
2018-12-21T06:02:24.632Z,94457.07
2018-12-21T06:04:52.884Z,94448.07
2018-12-21T06:07:21.273Z,94453.24
2018-12-21T06:09:49.554Z,94447.54
2018-12-21T06:12:17.733Z,94457.72
2018-12-21T06:14:46.694Z,94460.78
2018-12-21T06:17:15.045Z,94459.86
2018-12-21T06:19:43.813Z,94460.44
2018-12-21T06:22:12.019Z,94464.97
2018-12-21T06:24:40.071Z,94466.19
2018-12-21T06:27:08.282Z,94467.16
2018-12-21T06:29:36.451Z,94466.01
2018-12-21T06:32:04.754Z,94464.60
2018-12-21T06:34:32.982Z,94468.90
2018-12-21T06:37:01.199Z,94470.45
2018-12-21T06:39:29.403Z,94473.10
2018-12-21T06:41:58.687Z,94474.11
2018-12-21T06:44:26.991Z,94446.48
2018-12-21T06:46:55.215Z,94434.89
2018-12-21T06:49:23.372Z,94444.09
2018-12-21T06:51:51.479Z,94446.70
2018-12-21T06:54:19.891Z,94457.07
2018-12-21T06:56:48.107Z,94462.38
2018-12-21T06:59:16.556Z,94459.88
2018-12-21T07:01:44.849Z,94458.84
2018-12-21T07:04:14.251Z,94461.64
2018-12-21T07:06:42.508Z,94470.62
2018-12-21T07:09:10.742Z,94464.31
2018-12-21T07:11:38.931Z,94478.38
2018-12-21T07:14:07.738Z,94494.85
2018-12-21T07:16:36.001Z,94501.95
2018-12-21T07:19:04.432Z,94505.09
2018-12-21T07:21:32.714Z,94503.70
2018-12-21T07:24:00.911Z,94495.76
2018-12-21T07:26:29.343Z,94502.88
2018-12-21T07:28:58.210Z,94493.47
2018-12-21T07:31:26.446Z,94493.39
2018-12-21T07:33:54.850Z,94492.43
2018-12-21T07:36:23.467Z,94493.69
2018-12-21T07:38:51.940Z,94494.41
2018-12-21T07:41:20.258Z,94504.44
2018-12-21T07:43:48.623Z,94494.34
2018-12-21T07:46:16.764Z,94499.63
2018-12-21T07:48:45.298Z,94507.94
2018-12-21T07:51:13.593Z,94511.80
2018-12-21T07:53:42.059Z,94504.50
2018-12-21T07:56:11.490Z,94501.48
2018-12-21T07:58:40.367Z,94499.50
2018-12-21T08:01:08.984Z,94487.22
2018-12-21T08:03:37.252Z,94500.01
2018-12-21T08:06:06.063Z,94507.41
2018-12-21T08:08:34.446Z,94510.11
2018-12-21T08:11:03.470Z,94507.30
2018-12-21T08:13:32.270Z,94514.16
2018-12-21T08:16:00.902Z,94493.22
2018-12-21T08:18:29.977Z,94486.00
2018-12-21T08:20:59.450Z,94474.92
2018-12-21T08:23:29.096Z,94476.11
2018-12-21T08:25:57.961Z,94482.47
2018-12-21T08:28:26.527Z,94482.48
2018-12-21T08:30:55.167Z,94492.63
2018-12-21T08:33:23.825Z,94494.91
2018-12-21T08:35:53.027Z,94492.44
2018-12-21T08:38:22.070Z,94490.74
2018-12-21T08:40:50.572Z,94508.61
2018-12-21T08:43:18.920Z,94514.08
2018-12-21T08:45:48.265Z,94514.04
2018-12-21T08:48:16.997Z,94501.47
2018-12-21T08:50:46.449Z,94487.16
2018-12-21T08:53:15.031Z,94472.49
2018-12-21T08:55:44.452Z,94461.67
2018-12-21T08:58:14.195Z,94475.13
2018-12-21T09:00:42.779Z,94472.97
2018-12-21T09:03:11.564Z,94470.28
2018-12-21T09:05:40.128Z,94470.27
2018-12-21T09:08:08.693Z,94471.83
2018-12-21T09:10:37.457Z,94463.79
2018-12-21T09:13:06.373Z,94461.04
2018-12-21T09:15:35.000Z,94459.93
2018-12-21T09:18:04.931Z,94458.85
2018-12-21T09:20:33.836Z,94455.95
2018-12-21T09:23:03.123Z,94439.80
2018-12-21T09:25:31.956Z,94438.11
2018-12-21T09:28:02.418Z,94449.14
2018-12-21T09:30:30.750Z,94448.29
2018-12-21T09:32:59.196Z,94446.45
2018-12-21T09:35:27.693Z,94435.16
2018-12-21T09:37:56.484Z,94421.91
2018-12-21T09:40:25.067Z,94410.30
2018-12-21T09:42:53.657Z,94407.03
2018-12-21T09:45:22.555Z,94415.53
2018-12-21T09:47:51.129Z,94414.91
2018-12-21T09:50:19.797Z,94407.89
2018-12-21T09:52:48.497Z,94407.51
2018-12-21T09:55:18.085Z,94402.89
2018-12-21T09:57:47.674Z,94401.18
2018-12-21T10:00:16.673Z,94402.84
2018-12-21T10:02:45.134Z,94400.75
2018-12-21T10:05:15.717Z,94397.80
2018-12-21T10:07:45.049Z,94406.69
2018-12-21T10:10:13.592Z,94410.49
2018-12-21T10:12:42.482Z,94413.05
2018-12-21T10:15:11.524Z,94419.41
2018-12-21T10:17:40.096Z,94417.68
2018-12-21T10:20:09.282Z,94422.28
2018-12-21T10:22:37.979Z,94413.55
2018-12-21T10:25:07.116Z,94410.64
2018-12-21T10:27:35.971Z,94406.08
2018-12-21T10:30:06.226Z,94414.84
2018-12-21T10:32:34.578Z,94409.48
2018-12-21T10:35:02.754Z,94409.94
2018-12-21T10:37:31.164Z,94408.39
2018-12-21T10:39:59.372Z,94410.24
2018-12-21T10:42:27.679Z,94409.31
2018-12-21T10:44:56.402Z,94399.87
2018-12-21T10:47:24.883Z,94398.09
2018-12-21T10:49:53.148Z,94396.12
2018-12-21T10:52:21.553Z,94403.67
2018-12-21T10:54:49.943Z,94403.48
2018-12-21T10:57:18.359Z,94395.42
2018-12-21T10:59:46.961Z,94379.77
2018-12-21T11:02:15.706Z,94380.30
2018-12-21T11:04:44.088Z,94372.94
2018-12-21T11:07:12.586Z,94369.67
2018-12-21T11:09:41.096Z,94371.41
2018-12-21T11:12:09.241Z,94375.19
2018-12-21T11:14:37.608Z,94372.77
2018-12-21T11:17:05.934Z,94363.88
2018-12-21T11:19:35.164Z,94359.56
2018-12-21T11:22:03.606Z,94346.97
2018-12-21T11:24:35.510Z,94328.13
2018-12-21T11:27:01.732Z,94319.36
2018-12-21T11:29:29.893Z,94328.80
2018-12-21T11:31:57.950Z,94330.09
2018-12-21T11:34:25.982Z,94335.58
2018-12-21T11:36:54.108Z,94346.14
2018-12-21T11:39:22.213Z,94348.29
2018-12-21T11:41:50.379Z,94343.30
2018-12-21T11:44:18.427Z,94331.48
2018-12-21T11:46:46.490Z,94328.51
2018-12-21T11:49:14.585Z,94329.46
2018-12-21T11:51:42.600Z,94328.58
2018-12-21T11:54:10.748Z,94319.34
2018-12-21T11:56:38.834Z,94315.13
2018-12-21T11:59:06.912Z,94322.27
2018-12-21T12:01:35.029Z,94334.23
2018-12-21T12:04:03.203Z,94337.46
2018-12-21T12:06:31.317Z,94340.21
2018-12-21T12:09:06.199Z,94328.50
2018-12-21T12:11:29.742Z,94317.66
2018-12-21T12:13:57.805Z,94324.00
2018-12-21T12:16:26.556Z,94322.80
2018-12-21T12:18:54.573Z,94293.78
2018-12-21T12:21:25.766Z,94280.99
2018-12-21T12:23:55.089Z,94302.77
2018-12-21T12:26:23.418Z,94323.09
2018-12-21T12:28:51.645Z,94325.86
2018-12-21T12:31:19.808Z,94325.73
2018-12-21T12:33:48.018Z,94313.08
2018-12-21T12:36:16.504Z,94303.55
2018-12-21T12:38:44.678Z,94313.64
2018-12-21T12:41:12.889Z,94318.33
2018-12-21T12:43:41.406Z,94314.46
2018-12-21T12:46:09.449Z,94316.02
2018-12-21T12:48:37.685Z,94316.77
2018-12-21T12:51:05.804Z,94314.73
2018-12-21T12:53:34.054Z,94308.08
2018-12-21T12:56:02.220Z,94320.16
2018-12-21T12:58:30.361Z,94318.17
2018-12-21T13:00:58.575Z,94321.94
2018-12-21T13:03:26.935Z,94324.75
2018-12-21T13:05:55.563Z,94327.89
2018-12-21T13:08:23.670Z,94331.59
2018-12-21T13:10:51.742Z,94328.93
2018-12-21T13:13:20.395Z,94329.16
2018-12-21T13:15:48.579Z,94326.41
2018-12-21T13:18:17.237Z,94327.31
2018-12-21T13:20:45.497Z,94318.02
2018-12-21T13:23:13.558Z,94328.88
2018-12-21T13:25:43.231Z,94325.48
2018-12-21T13:28:11.821Z,94310.62
2018-12-21T13:30:39.840Z,94305.42
2018-12-21T13:33:07.906Z,94306.19
2018-12-21T13:35:36.593Z,94310.70
2018-12-21T13:38:04.749Z,94311.95
2018-12-21T13:40:32.865Z,94304.25
2018-12-21T13:43:01.357Z,94291.41
2018-12-21T13:45:29.490Z,94286.13
2018-12-21T13:48:00.593Z,94290.64
2018-12-21T13:50:28.864Z,94295.88
2018-12-21T13:52:57.085Z,94290.72
2018-12-21T13:55:25.095Z,94290.85
2018-12-21T13:57:53.243Z,94286.25
2018-12-21T14:00:21.305Z,94294.17
2018-12-21T14:02:49.465Z,94298.57
2018-12-21T14:05:17.780Z,94292.17
2018-12-21T14:07:45.910Z,94291.48
2018-12-21T14:10:14.058Z,94294.15
2018-12-21T14:12:42.613Z,94295.91
2018-12-21T14:15:10.669Z,94300.63
2018-12-21T14:17:38.720Z,94301.63
2018-12-21T14:20:09.971Z,94298.68
2018-12-21T14:22:38.448Z,94302.06
2018-12-21T14:25:07.674Z,94298.72
2018-12-21T14:27:36.027Z,94308.07
2018-12-21T14:30:05.778Z,94310.65
2018-12-21T14:32:33.901Z,94309.34
2018-12-21T14:35:02.133Z,94308.53
2018-12-21T14:37:30.211Z,94317.86
2018-12-21T14:39:58.499Z,94314.84
2018-12-21T14:42:26.644Z,94307.53
2018-12-21T14:44:54.995Z,94317.24
2018-12-21T14:47:23.487Z,94311.45
2018-12-21T14:49:51.566Z,94320.03
2018-12-21T14:52:19.927Z,94323.05
2018-12-21T14:54:47.951Z,94324.77
2018-12-21T14:57:15.950Z,94326.52
2018-12-21T14:59:43.872Z,94326.52
2018-12-21T15:02:11.940Z,94328.21
2018-12-21T15:04:39.869Z,94329.91
2018-12-21T15:07:07.886Z,94337.10
2018-12-21T15:09:35.874Z,94326.48
2018-12-21T15:12:03.915Z,94334.98
2018-12-21T15:14:31.874Z,94316.73
2018-12-21T15:16:59.732Z,94315.05
2018-12-21T15:19:27.704Z,94316.76
2018-12-21T15:21:57.388Z,94319.23
2018-12-21T15:24:25.673Z,94322.15
2018-12-21T15:26:53.737Z,94330.63
2018-12-21T15:29:21.770Z,94330.23
2018-12-21T15:31:49.806Z,94324.67
2018-12-21T15:34:17.928Z,94328.78
2018-12-21T15:36:45.863Z,94334.22
2018-12-21T15:39:13.766Z,94333.30
2018-12-21T15:41:41.812Z,94346.37
2018-12-21T15:44:09.787Z,94351.84
2018-12-21T15:46:37.727Z,94345.48
2018-12-21T15:49:05.838Z,94338.73
2018-12-21T15:51:33.944Z,94338.27
2018-12-21T15:54:01.946Z,94339.04
2018-12-21T15:56:30.081Z,94340.22
2018-12-21T15:58:58.095Z,94338.50
2018-12-21T16:01:26.384Z,94335.42
2018-12-21T16:03:54.389Z,94330.33
2018-12-21T16:06:22.697Z,94332.44
2018-12-21T16:08:50.698Z,94343.45
2018-12-21T16:11:19.027Z,94343.45
2018-12-21T16:13:47.191Z,94347.20
2018-12-21T16:16:15.310Z,94352.70
2018-12-21T16:18:43.441Z,94337.08
2018-12-21T16:21:11.628Z,94333.67
2018-12-21T16:23:39.999Z,94340.06
2018-12-21T16:26:08.422Z,94334.10
2018-12-21T16:28:37.249Z,94345.16
2018-12-21T16:31:05.575Z,94344.80
2018-12-21T16:33:33.704Z,94350.30
2018-12-21T16:36:02.043Z,94351.62
2018-12-21T16:38:30.749Z,94350.70
2018-12-21T16:41:00.116Z,94343.81
2018-12-21T16:43:29.422Z,94334.05
2018-12-21T16:45:58.115Z,94334.14
2018-12-21T16:48:27.043Z,94332.79
2018-12-21T16:50:58.012Z,94345.83
2018-12-21T16:53:26.900Z,94348.69
2018-12-21T16:55:55.235Z,94343.98
2018-12-21T16:58:24.513Z,94336.28
2018-12-21T17:00:53.613Z,94329.47
2018-12-21T17:03:22.011Z,94327.80
2018-12-21T17:05:50.668Z,94329.49
2018-12-21T17:08:19.314Z,94342.28
2018-12-21T17:10:48.521Z,94334.58
2018-12-21T17:13:17.160Z,94344.64
2018-12-21T17:15:45.489Z,94351.02
2018-12-21T17:18:15.326Z,94351.39
2018-12-21T17:20:43.973Z,94345.39
2018-12-21T17:23:13.062Z,94336.38
2018-12-21T17:25:41.795Z,94335.44
2018-12-21T17:28:10.173Z,94336.72
2018-12-21T17:30:39.303Z,94330.66
2018-12-21T17:33:07.926Z,94331.86
2018-12-21T17:35:37.555Z,94335.84
2018-12-21T17:38:06.421Z,94337.20
2018-12-21T17:40:34.822Z,94328.80
2018-12-21T17:43:03.199Z,94328.78
2018-12-21T17:45:32.355Z,94325.77
2018-12-21T17:48:01.176Z,94327.47
2018-12-21T17:50:30.305Z,94328.66
2018-12-21T17:52:58.569Z,94331.70
2018-12-21T17:55:27.074Z,94327.55
2018-12-21T17:57:55.647Z,94324.21
2018-12-21T18:00:23.925Z,94324.66
2018-12-21T18:02:55.179Z,94328.55
2018-12-21T18:05:26.622Z,94321.78
2018-12-21T18:07:56.894Z,94331.13
2018-12-21T18:10:25.592Z,94328.36
2018-12-21T18:12:54.376Z,94332.80
2018-12-21T18:15:23.302Z,94332.68
2018-12-21T18:17:51.921Z,94328.48
2018-12-21T18:20:20.185Z,94330.98
2018-12-21T18:22:48.619Z,94329.73
2018-12-21T18:25:22.584Z,94329.25
2018-12-21T18:27:52.854Z,94315.23
2018-12-21T18:30:28.387Z,94320.70
2018-12-21T18:32:57.067Z,94315.64
2018-12-21T18:35:25.512Z,94320.36
2018-12-21T18:38:04.932Z,94315.81
2018-12-21T18:40:33.769Z,94317.45
2018-12-21T18:43:01.799Z,94327.53
2018-12-21T18:45:29.862Z,94319.09
2018-12-21T18:47:58.022Z,94321.84
2018-12-21T18:50:27.127Z,94317.13
2018-12-21T18:52:55.320Z,94319.94
2018-12-21T18:55:23.441Z,94317.73
2018-12-21T18:57:51.632Z,94305.69
2018-12-21T19:00:19.890Z,94308.64
2018-12-21T19:02:48.097Z,94311.45
2018-12-21T19:05:16.441Z,94308.50
2018-12-21T19:07:44.753Z,94305.47
2018-12-21T19:10:13.063Z,94302.82
2018-12-21T19:12:41.176Z,94303.88
2018-12-21T19:15:10.766Z,94300.84
2018-12-21T19:17:39.213Z,94303.62
2018-12-21T19:20:10.252Z,94300.31
2018-12-21T19:22:39.209Z,94298.09
2018-12-21T19:25:09.107Z,94295.95
2018-12-21T19:27:37.269Z,94302.64
2018-12-21T19:30:07.715Z,94295.20
2018-12-21T19:32:36.033Z,94297.38
2018-12-21T19:35:04.458Z,94296.91
2018-12-21T19:37:32.601Z,94294.06
2018-12-21T19:40:00.967Z,94292.88
2018-12-21T19:42:29.030Z,94292.17
2018-12-21T19:44:57.133Z,94304.31
2018-12-21T19:47:25.562Z,94295.07
2018-12-21T19:49:53.791Z,94289.17
2018-12-21T19:52:21.873Z,94287.64
2018-12-21T19:54:54.374Z,94285.16
2018-12-21T19:57:22.468Z,94280.62
2018-12-21T19:59:50.570Z,94286.03
2018-12-21T20:02:18.677Z,94281.05
2018-12-21T20:04:46.902Z,94273.97
2018-12-21T20:07:15.122Z,94265.94
2018-12-21T20:09:43.458Z,94267.15
2018-12-21T20:12:11.464Z,94261.32
2018-12-21T20:14:39.489Z,94261.44
2018-12-21T20:17:07.591Z,94251.71
2018-12-21T20:19:35.823Z,94248.09
2018-12-21T20:22:03.923Z,94236.55
2018-12-21T20:24:34.818Z,94247.96
2018-12-21T20:27:13.459Z,94243.50
2018-12-21T20:29:37.528Z,94240.85
2018-12-21T20:32:05.527Z,94239.13
2018-12-21T20:34:34.207Z,94239.66
2018-12-21T20:37:02.423Z,94236.66
2018-12-21T20:39:30.638Z,94239.39
2018-12-21T20:41:58.768Z,94238.63
2018-12-21T20:44:26.890Z,94246.66
2018-12-21T20:46:55.284Z,94246.31
2018-12-21T20:49:23.578Z,94246.81
2018-12-21T20:51:51.781Z,94236.42
2018-12-21T20:54:19.861Z,94237.64
2018-12-21T20:56:51.353Z,94239.70
2018-12-21T20:59:21.847Z,94227.98
2018-12-21T21:01:50.121Z,94228.05
2018-12-21T21:04:18.280Z,94226.80
2018-12-21T21:06:46.314Z,94226.44
2018-12-21T21:09:15.434Z,94222.59
2018-12-21T21:11:43.530Z,94223.43
2018-12-21T21:14:13.208Z,94222.59
2018-12-21T21:16:41.467Z,94220.20
2018-12-21T21:19:09.513Z,94225.19
2018-12-21T21:21:37.594Z,94220.11
2018-12-21T21:24:05.632Z,94220.45
2018-12-21T21:26:33.631Z,94221.76
2018-12-21T21:29:01.699Z,94220.56
2018-12-21T21:31:31.417Z,94222.73
2018-12-21T21:33:59.466Z,94219.75
2018-12-21T21:36:27.659Z,94222.55
2018-12-21T21:38:55.734Z,94209.12
2018-12-21T21:41:24.228Z,94213.02
2018-12-21T21:43:52.318Z,94204.53
2018-12-21T21:46:20.488Z,94209.55
2018-12-21T21:48:48.659Z,94200.73
2018-12-21T21:51:16.757Z,94202.49
2018-12-21T21:53:44.791Z,94206.21
2018-12-21T21:56:12.959Z,94214.27
2018-12-21T21:58:41.010Z,94217.27
2018-12-21T22:01:09.065Z,94226.17
2018-12-21T22:03:37.154Z,94228.37
2018-12-21T22:06:05.321Z,94220.36
2018-12-21T22:08:33.361Z,94222.01
2018-12-21T22:11:01.968Z,94215.31
2018-12-21T22:13:30.521Z,94205.16
2018-12-21T22:15:58.606Z,94208.03
2018-12-21T22:18:26.671Z,94206.29
2018-12-21T22:20:54.738Z,94200.25
2018-12-21T22:23:22.733Z,94198.53
2018-12-21T22:25:53.537Z,94199.41
2018-12-21T22:28:20.863Z,94200.22
2018-12-21T22:30:48.816Z,94195.11
2018-12-21T22:33:16.810Z,94193.84
2018-12-21T22:35:44.790Z,94197.17
2018-12-21T22:38:12.758Z,94199.20
2018-12-21T22:40:40.670Z,94198.43
2018-12-21T22:43:08.587Z,94207.17
2018-12-21T22:45:36.677Z,94211.36
2018-12-21T22:48:04.730Z,94200.43
2018-12-21T22:50:32.785Z,94185.31
2018-12-21T22:53:00.802Z,94182.34
2018-12-21T22:55:28.825Z,94177.55
2018-12-21T22:57:56.838Z,94171.73
2018-12-21T23:00:34.339Z,94176.77
2018-12-21T23:03:02.517Z,94183.57
2018-12-21T23:05:30.542Z,94182.81
2018-12-21T23:07:58.507Z,94175.22
2018-12-21T23:10:26.573Z,94168.97
2018-12-21T23:12:54.640Z,94174.45
2018-12-21T23:15:22.701Z,94180.34
2018-12-21T23:17:50.623Z,94187.14
2018-12-21T23:20:18.613Z,94169.83
2018-12-21T23:22:46.562Z,94164.33
2018-12-21T23:25:14.581Z,94157.14
2018-12-21T23:27:42.546Z,94160.94
2018-12-21T23:30:10.522Z,94161.25
2018-12-21T23:32:38.499Z,94152.91
2018-12-21T23:35:07.255Z,94152.45
2018-12-21T23:37:35.313Z,94156.19
2018-12-21T23:40:03.699Z,94164.30
2018-12-21T23:42:31.703Z,94172.41
2018-12-21T23:44:59.802Z,94172.05
2018-12-21T23:47:27.738Z,94162.75
2018-12-21T23:49:55.816Z,94159.81
2018-12-21T23:52:23.855Z,94161.89
2018-12-21T23:54:51.904Z,94154.64
2018-12-21T23:57:19.848Z,94139.37
2018-12-21T23:59:47.840Z,94132.20
